createdAt,value
2023-05-19T00:01:52.626Z,99845.88
2023-05-19T00:04:19.401Z,99846.63
2023-05-19T00:06:50.986Z,99857.34
2023-05-19T00:09:17.968Z,99846.69
2023-05-19T00:11:44.854Z,99853.25
2023-05-19T00:14:11.699Z,99854.59
2023-05-19T00:16:39.257Z,99851.38
2023-05-19T00:19:06.660Z,99843.53
2023-05-19T00:21:33.268Z,99842.91
2023-05-19T00:23:59.858Z,99844.16
2023-05-19T00:26:27.199Z,99854.34
2023-05-19T00:29:04.478Z,99844.06
2023-05-19T00:31:31.825Z,99851.63
2023-05-19T00:33:58.480Z,99843.03
2023-05-19T00:36:25.339Z,99848.91
2023-05-19T00:38:51.976Z,99841.03
2023-05-19T00:41:18.748Z,99845.72
2023-05-19T00:43:45.600Z,99844.78
2023-05-19T00:46:12.358Z,99844.59
2023-05-19T00:48:39.262Z,99839.34
2023-05-19T00:51:06.592Z,99837.63
2023-05-19T00:53:34.776Z,99839.72
2023-05-19T00:56:02.947Z,99842.47
2023-05-19T00:58:32.459Z,99835.81
2023-05-19T01:01:04.237Z,99831.59
2023-05-19T01:03:32.568Z,99833.13
2023-05-19T01:06:01.711Z,99831.25
2023-05-19T01:08:29.340Z,99835.88
2023-05-19T01:10:55.907Z,99830.28
2023-05-19T01:13:22.769Z,99822.19
2023-05-19T01:15:57.054Z,99830.78
2023-05-19T01:18:35.713Z,99821.38
2023-05-19T01:21:38.031Z,99827.78
2023-05-19T01:24:09.737Z,99827.00
2023-05-19T01:26:46.000Z,99826.25
2023-05-19T01:29:32.231Z,99824.19
2023-05-19T01:32:00.971Z,99821.03
2023-05-19T01:34:27.863Z,99819.25
2023-05-19T01:36:56.027Z,99823.50
2023-05-19T01:39:24.638Z,99816.53
2023-05-19T01:41:52.433Z,99825.66
2023-05-19T01:44:20.028Z,99819.81
2023-05-19T01:46:47.461Z,99815.44
2023-05-19T01:49:14.235Z,99819.50
2023-05-19T01:51:41.248Z,99816.69
2023-05-19T01:54:07.909Z,99828.03
2023-05-19T01:56:45.378Z,99824.03
2023-05-19T01:59:24.704Z,99816.34
2023-05-19T02:01:53.935Z,99819.16
2023-05-19T02:04:41.973Z,99826.06
2023-05-19T02:07:14.787Z,99825.03
2023-05-19T02:09:59.347Z,99826.84
2023-05-19T02:12:32.355Z,99824.84
2023-05-19T02:15:12.338Z,99827.34
2023-05-19T02:17:42.657Z,99825.16
2023-05-19T02:20:10.612Z,99828.38
2023-05-19T02:22:37.825Z,99830.84
2023-05-19T02:25:04.987Z,99829.19
2023-05-19T02:27:33.905Z,99826.53
2023-05-19T02:30:03.554Z,99830.34
2023-05-19T02:32:31.573Z,99828.84
2023-05-19T02:34:58.362Z,99830.66
2023-05-19T02:37:25.254Z,99829.09
2023-05-19T02:39:51.817Z,99836.31
2023-05-19T02:42:18.729Z,99829.16
2023-05-19T02:44:45.425Z,99833.81
2023-05-19T02:47:13.151Z,99832.91
2023-05-19T02:49:40.199Z,99833.03
2023-05-19T02:52:07.239Z,99830.41
2023-05-19T02:54:34.983Z,99825.75
2023-05-19T02:57:02.214Z,99828.25
2023-05-19T02:59:28.881Z,99827.34
2023-05-19T03:01:57.672Z,99828.94
2023-05-19T03:04:24.378Z,99815.84
2023-05-19T03:06:51.038Z,99828.06
2023-05-19T03:09:17.731Z,99821.72
2023-05-19T03:11:44.473Z,99818.50
2023-05-19T03:14:12.121Z,99819.56
2023-05-19T03:16:41.332Z,99819.41
2023-05-19T03:19:09.301Z,99820.44
2023-05-19T03:21:36.063Z,99813.28
2023-05-19T03:24:02.955Z,99818.59
2023-05-19T03:26:29.864Z,99814.91
2023-05-19T03:28:57.038Z,99815.91
2023-05-19T03:31:23.869Z,99812.97
2023-05-19T03:33:50.694Z,99813.72
2023-05-19T03:36:17.908Z,99813.84
2023-05-19T03:38:44.513Z,99816.66
2023-05-19T03:41:11.096Z,99813.78
2023-05-19T03:43:37.926Z,99817.66
2023-05-19T03:46:07.159Z,99821.03
2023-05-19T03:48:42.627Z,99817.63
2023-05-19T03:51:47.505Z,99827.91
2023-05-19T03:54:33.006Z,99823.38
2023-05-19T03:56:59.566Z,99823.25
2023-05-19T03:59:26.151Z,99827.38
2023-05-19T04:01:52.927Z,99831.47
2023-05-19T04:04:19.934Z,99830.19
2023-05-19T04:06:46.751Z,99829.41
2023-05-19T04:09:15.791Z,99832.13
2023-05-19T04:11:43.065Z,99841.91
2023-05-19T04:14:09.934Z,99841.31
2023-05-19T04:16:36.970Z,99851.56
2023-05-19T04:19:03.675Z,99839.88
2023-05-19T04:21:30.525Z,99836.34
2023-05-19T04:23:59.175Z,99840.28
2023-05-19T04:26:26.902Z,99838.00
2023-05-19T04:28:56.714Z,99834.34
2023-05-19T04:31:24.112Z,99830.38
2023-05-19T04:33:50.829Z,99829.28
2023-05-19T04:36:24.591Z,99825.78
2023-05-19T04:38:55.023Z,99826.94
2023-05-19T04:41:24.307Z,99828.84
2023-05-19T04:43:51.160Z,99833.75
2023-05-19T04:46:26.327Z,99833.75
2023-05-19T04:48:55.412Z,99835.25
2023-05-19T04:51:22.090Z,99836.56
2023-05-19T04:53:49.173Z,99830.84
2023-05-19T04:56:15.983Z,99829.16
2023-05-19T04:58:44.662Z,99831.44
2023-05-19T05:01:13.848Z,99832.91
2023-05-19T05:03:40.754Z,99834.13
2023-05-19T05:06:07.628Z,99831.00
2023-05-19T05:08:34.974Z,99838.75
2023-05-19T05:11:02.346Z,99829.13
2023-05-19T05:13:29.311Z,99827.66
2023-05-19T05:15:56.957Z,99825.84
2023-05-19T05:18:23.936Z,99832.72
2023-05-19T05:20:51.857Z,99829.19
2023-05-19T05:23:19.912Z,99831.50
2023-05-19T05:25:48.818Z,99840.63
2023-05-19T05:28:16.460Z,99839.31
2023-05-19T05:30:44.879Z,99841.81
2023-05-19T05:33:13.505Z,99839.84
2023-05-19T05:35:41.276Z,99835.78
2023-05-19T05:38:11.689Z,99841.22
2023-05-19T05:40:39.165Z,99837.31
2023-05-19T05:43:06.191Z,99834.50
2023-05-19T05:45:37.413Z,99835.66
2023-05-19T05:48:05.527Z,99827.69
2023-05-19T05:50:32.493Z,99831.34
2023-05-19T05:53:01.416Z,99831.69
2023-05-19T05:55:28.514Z,99832.25
2023-05-19T05:57:56.870Z,99820.84
2023-05-19T06:00:23.801Z,99828.50
2023-05-19T06:02:52.882Z,99824.19
2023-05-19T06:05:20.300Z,99824.28
2023-05-19T06:07:48.234Z,99817.28
2023-05-19T06:10:20.148Z,99819.16
2023-05-19T06:12:48.956Z,99816.94
2023-05-19T06:15:15.849Z,99817.34
2023-05-19T06:18:05.869Z,99817.56
2023-05-19T06:20:32.675Z,99818.59
2023-05-19T06:23:00.804Z,99817.63
2023-05-19T06:25:28.949Z,99812.66
2023-05-19T06:27:56.539Z,99814.00
2023-05-19T06:30:23.934Z,99817.34
2023-05-19T06:33:13.939Z,99815.06
2023-05-19T06:35:40.992Z,99817.25
2023-05-19T06:38:07.807Z,99816.25
2023-05-19T06:40:34.723Z,99818.50
2023-05-19T06:43:01.583Z,99806.50
2023-05-19T06:45:51.008Z,99806.09
2023-05-19T06:48:18.216Z,99804.47
2023-05-19T06:50:44.850Z,99803.81
2023-05-19T06:53:12.882Z,99808.63
2023-05-19T06:55:54.347Z,99808.69
2023-05-19T06:58:27.067Z,99814.53
2023-05-19T07:00:54.530Z,99807.28
2023-05-19T07:03:22.456Z,99804.19
2023-05-19T07:05:49.309Z,99797.13
2023-05-19T07:08:16.355Z,99792.97
2023-05-19T07:10:43.971Z,99794.66
2023-05-19T07:13:13.267Z,99790.94
2023-05-19T07:15:40.896Z,99792.13
2023-05-19T07:18:07.645Z,99790.06
2023-05-19T07:20:35.652Z,99791.00
2023-05-19T07:23:02.758Z,99778.72
2023-05-19T07:25:30.522Z,99779.88
2023-05-19T07:27:57.450Z,99773.31
2023-05-19T07:30:24.148Z,99764.47
2023-05-19T07:32:50.874Z,99768.16
2023-05-19T07:35:17.536Z,99775.66
2023-05-19T07:37:44.173Z,99768.94
2023-05-19T07:40:11.115Z,99765.28
2023-05-19T07:42:38.142Z,99761.22
2023-05-19T07:45:05.156Z,99753.84
2023-05-19T07:47:31.895Z,99753.22
2023-05-19T07:49:58.617Z,99752.06
2023-05-19T07:52:25.303Z,99752.19
2023-05-19T07:54:51.876Z,99747.03
2023-05-19T07:57:18.969Z,99748.50
2023-05-19T07:59:45.667Z,99746.66
2023-05-19T08:02:12.407Z,99734.03
2023-05-19T08:04:39.161Z,99735.38
2023-05-19T08:07:05.868Z,99737.06
2023-05-19T08:09:32.524Z,99716.13
2023-05-19T08:11:59.193Z,99733.84
2023-05-19T08:14:26.934Z,99723.72
2023-05-19T08:16:53.581Z,99726.75
2023-05-19T08:19:20.199Z,99716.91
2023-05-19T08:21:48.387Z,99708.69
2023-05-19T08:24:15.254Z,99707.84
2023-05-19T08:26:41.908Z,99715.53
2023-05-19T08:29:08.453Z,99708.03
2023-05-19T08:31:35.193Z,99697.84
2023-05-19T08:34:01.997Z,99694.97
2023-05-19T08:36:29.482Z,99690.94
2023-05-19T08:38:56.238Z,99695.31
2023-05-19T08:41:23.346Z,99691.53
2023-05-19T08:43:50.198Z,99687.41
2023-05-19T08:46:17.210Z,99692.28
2023-05-19T08:48:45.297Z,99695.53
2023-05-19T08:51:33.842Z,99690.94
2023-05-19T08:54:15.708Z,99688.44
2023-05-19T08:56:44.881Z,99683.66
2023-05-19T08:59:16.044Z,99672.72
2023-05-19T09:01:46.462Z,99676.13
2023-05-19T09:04:14.116Z,99686.06
2023-05-19T09:06:41.161Z,99684.47
2023-05-19T09:09:08.565Z,99669.41
2023-05-19T09:11:37.654Z,99660.06
2023-05-19T09:14:05.155Z,99670.31
2023-05-19T09:16:34.024Z,99677.84
2023-05-19T09:19:01.553Z,99667.19
2023-05-19T09:21:32.373Z,99679.56
2023-05-19T09:24:06.743Z,99673.31
2023-05-19T09:26:38.541Z,99664.44
2023-05-19T09:29:18.111Z,99652.22
2023-05-19T09:32:01.015Z,99659.19
2023-05-19T09:34:27.983Z,99647.19
2023-05-19T09:36:54.617Z,99652.03
2023-05-19T09:39:23.028Z,99663.66
2023-05-19T09:41:58.496Z,99655.75
2023-05-19T09:44:30.381Z,99650.16
2023-05-19T09:47:00.936Z,99651.53
2023-05-19T09:49:32.867Z,99641.72
2023-05-19T09:52:03.301Z,99656.59
2023-05-19T09:54:32.500Z,99669.16
2023-05-19T09:57:07.059Z,99646.69
2023-05-19T09:59:34.994Z,99648.03
2023-05-19T10:02:02.543Z,99647.44
2023-05-19T10:04:30.605Z,99658.78
2023-05-19T10:07:01.307Z,99652.06
2023-05-19T10:09:29.538Z,99643.03
2023-05-19T10:11:57.919Z,99636.97
2023-05-19T10:14:26.155Z,99633.56
2023-05-19T10:16:59.128Z,99648.09
2023-05-19T10:19:28.640Z,99641.75
2023-05-19T10:21:56.262Z,99629.84
2023-05-19T10:24:23.340Z,99628.13
2023-05-19T10:26:56.686Z,99621.41
2023-05-19T10:29:27.917Z,99624.66
2023-05-19T10:31:57.248Z,99620.63
2023-05-19T10:34:50.192Z,99632.88
2023-05-19T10:37:23.868Z,99618.53
2023-05-19T10:39:51.311Z,99610.25
2023-05-19T10:42:40.985Z,99608.31
2023-05-19T10:45:15.777Z,99606.38
2023-05-19T10:47:42.552Z,99610.25
2023-05-19T10:50:10.621Z,99614.13
2023-05-19T10:52:38.799Z,99612.28
2023-05-19T10:55:10.203Z,99605.94
2023-05-19T10:57:37.091Z,99599.13
2023-05-19T11:00:24.779Z,99602.16
2023-05-19T11:02:56.252Z,99598.78
2023-05-19T11:05:29.105Z,99605.84
2023-05-19T11:08:02.219Z,99601.91
2023-05-19T11:10:29.095Z,99586.16
2023-05-19T11:15:31.074Z,99587.09
2023-05-19T11:18:01.672Z,99588.59
2023-05-19T11:20:30.686Z,99587.19
2023-05-19T11:23:15.075Z,99581.59
2023-05-19T11:25:47.221Z,99573.84
2023-05-19T11:28:19.570Z,99577.09
2023-05-19T11:30:50.698Z,99573.97
2023-05-19T11:33:21.514Z,99582.34
2023-05-19T11:35:50.408Z,99578.09
2023-05-19T11:38:19.455Z,99583.41
2023-05-19T11:40:47.695Z,99571.25
2023-05-19T11:43:16.679Z,99576.47
2023-05-19T11:45:43.687Z,99575.78
2023-05-19T11:48:13.907Z,99571.84
2023-05-19T11:50:41.742Z,99568.50
2023-05-19T11:53:12.076Z,99571.84
2023-05-19T11:55:43.596Z,99580.97
2023-05-19T11:58:10.361Z,99571.56
2023-05-19T12:00:39.563Z,99562.88
2023-05-19T12:03:07.332Z,99551.25
2023-05-19T12:05:42.951Z,99552.72
2023-05-19T12:08:12.543Z,99555.34
2023-05-19T12:10:40.552Z,99558.16
2023-05-19T12:13:10.730Z,99567.00
2023-05-19T12:15:38.754Z,99551.25
2023-05-19T12:18:05.848Z,99560.19
2023-05-19T12:20:35.386Z,99572.38
2023-05-19T12:23:02.483Z,99570.00
2023-05-19T12:25:31.039Z,99587.00
2023-05-19T12:27:59.378Z,99563.72
2023-05-19T12:30:30.162Z,99558.28
2023-05-19T12:33:00.292Z,99560.31
2023-05-19T12:35:33.178Z,99566.38
2023-05-19T12:38:04.702Z,99565.94
2023-05-19T12:40:31.588Z,99563.53
2023-05-19T12:42:59.229Z,99547.72
2023-05-19T12:45:28.243Z,99547.47
2023-05-19T12:47:56.054Z,99540.41
2023-05-19T12:50:30.473Z,99548.78
2023-05-19T12:52:59.580Z,99545.75
2023-05-19T12:55:26.319Z,99544.78
2023-05-19T12:57:57.076Z,99539.44
2023-05-19T13:00:32.832Z,99536.97
2023-05-19T13:03:05.817Z,99533.00
2023-05-19T13:05:38.558Z,99533.88
2023-05-19T13:08:08.039Z,99527.16
2023-05-19T13:10:36.638Z,99529.34
2023-05-19T13:13:04.548Z,99534.97
2023-05-19T13:15:37.648Z,99537.50
2023-05-19T13:18:06.476Z,99535.44
2023-05-19T13:20:34.284Z,99526.38
2023-05-19T13:23:01.587Z,99527.09
2023-05-19T13:25:28.447Z,99522.97
2023-05-19T13:27:56.662Z,99524.78
2023-05-19T13:30:23.766Z,99529.91
2023-05-19T13:32:52.496Z,99526.13
2023-05-19T13:35:19.687Z,99518.59
2023-05-19T13:37:46.403Z,99515.19
2023-05-19T13:40:13.597Z,99512.88
2023-05-19T13:42:40.603Z,99521.25
2023-05-19T13:45:07.784Z,99525.16
2023-05-19T13:47:34.629Z,99519.31
2023-05-19T13:50:03.042Z,99503.56
2023-05-19T13:52:30.573Z,99512.78
2023-05-19T13:54:57.657Z,99516.16
2023-05-19T13:57:26.317Z,99515.91
2023-05-19T14:00:02.468Z,99513.13
2023-05-19T14:02:39.370Z,99512.25
2023-05-19T14:05:07.411Z,99522.44
2023-05-19T14:07:34.978Z,99523.66
2023-05-19T14:10:02.908Z,99516.66
2023-05-19T14:12:38.067Z,99512.50
2023-05-19T14:15:14.498Z,99509.88
2023-05-19T14:17:41.501Z,99516.88
2023-05-19T14:20:08.756Z,99511.53
2023-05-19T14:22:35.583Z,99521.00
2023-05-19T14:25:02.381Z,99521.47
2023-05-19T14:27:29.088Z,99519.78
2023-05-19T14:29:55.737Z,99514.59
2023-05-19T14:32:22.458Z,99517.00
2023-05-19T14:34:52.808Z,99517.63
2023-05-19T14:37:20.860Z,99516.16
2023-05-19T14:39:47.494Z,99513.72
2023-05-19T14:42:14.095Z,99525.88
2023-05-19T14:44:40.755Z,99519.19
2023-05-19T14:47:07.745Z,99516.88
2023-05-19T14:49:34.496Z,99516.88
2023-05-19T14:52:01.331Z,99522.25
2023-05-19T14:54:28.160Z,99519.31
2023-05-19T14:56:54.804Z,99523.81
2023-05-19T14:59:21.837Z,99511.66
2023-05-19T15:01:50.630Z,99514.81
2023-05-19T15:04:17.297Z,99516.72
2023-05-19T15:06:44.371Z,99508.00
2023-05-19T15:09:14.600Z,99513.19
2023-05-19T15:11:41.344Z,99499.94
2023-05-19T15:14:08.044Z,99506.47
2023-05-19T15:16:34.791Z,99492.97
2023-05-19T15:19:01.529Z,99497.19
2023-05-19T15:21:28.343Z,99492.59
2023-05-19T15:23:55.043Z,99491.78
2023-05-19T15:26:22.362Z,99494.50
2023-05-19T15:28:49.695Z,99510.44
2023-05-19T15:31:16.583Z,99500.63
2023-05-19T15:33:43.206Z,99500.50
2023-05-19T15:36:12.772Z,99499.66
2023-05-19T15:38:39.360Z,99495.63
2023-05-19T15:41:08.055Z,99498.31
2023-05-19T15:43:34.960Z,99497.69
2023-05-19T15:46:01.563Z,99505.50
2023-05-19T15:48:29.019Z,99507.59
2023-05-19T15:50:58.055Z,99509.34
2023-05-19T15:53:25.372Z,99521.06
2023-05-19T15:55:52.046Z,99513.88
2023-05-19T15:58:18.651Z,99503.72
2023-05-19T16:00:45.361Z,99499.72
2023-05-19T16:03:12.226Z,99506.88
2023-05-19T16:05:38.913Z,99498.19
2023-05-19T16:08:07.110Z,99497.34
2023-05-19T16:10:35.618Z,99503.91
2023-05-19T16:13:02.612Z,99504.69
2023-05-19T16:15:29.479Z,99502.84
2023-05-19T16:17:56.897Z,99493.25
2023-05-19T16:20:27.817Z,99492.53
2023-05-19T16:22:55.443Z,99501.03
2023-05-19T16:25:22.325Z,99495.25
2023-05-19T16:27:49.130Z,99497.38
2023-05-19T16:30:16.552Z,99494.72
2023-05-19T16:32:43.338Z,99486.97
2023-05-19T16:35:10.482Z,99481.88
2023-05-19T16:37:37.156Z,99487.25
2023-05-19T16:40:04.184Z,99490.03
2023-05-19T16:42:31.927Z,99486.44
2023-05-19T16:44:58.514Z,99492.19
2023-05-19T16:47:25.094Z,99486.81
2023-05-19T16:49:51.784Z,99479.84
2023-05-19T16:52:18.511Z,99482.91
2023-05-19T16:54:45.064Z,99483.06
2023-05-19T16:57:14.293Z,99479.31
2023-05-19T16:59:41.359Z,99476.22
2023-05-19T17:02:08.556Z,99484.47
2023-05-19T17:04:35.416Z,99480.47
2023-05-19T17:07:02.048Z,99476.09
2023-05-19T17:09:28.622Z,99484.94
2023-05-19T17:11:58.227Z,99485.38
2023-05-19T17:14:24.831Z,99478.56
2023-05-19T17:16:52.688Z,99483.84
2023-05-19T17:19:19.495Z,99477.19
2023-05-19T17:21:46.444Z,99479.91
2023-05-19T17:24:13.502Z,99478.47
2023-05-19T17:26:40.152Z,99479.22
2023-05-19T17:29:06.806Z,99480.56
2023-05-19T17:31:33.484Z,99482.59
2023-05-19T17:34:00.151Z,99489.81
2023-05-19T17:36:26.829Z,99489.84
2023-05-19T17:38:53.412Z,99490.34
2023-05-19T17:41:20.116Z,99484.91
2023-05-19T17:43:47.439Z,99483.47
2023-05-19T17:46:17.195Z,99483.06
2023-05-19T17:48:44.011Z,99478.38
2023-05-19T17:51:11.439Z,99486.88
2023-05-19T17:53:38.334Z,99489.16
2023-05-19T17:56:07.370Z,99485.44
2023-05-19T17:58:34.254Z,99484.91
2023-05-19T18:01:01.025Z,99479.22
2023-05-19T18:03:27.875Z,99482.41
2023-05-19T18:05:54.772Z,99486.16
2023-05-19T18:08:21.630Z,99485.38
2023-05-19T18:10:51.259Z,99491.75
2023-05-19T18:13:18.034Z,99498.03
2023-05-19T18:15:44.621Z,99492.06
2023-05-19T18:18:11.638Z,99492.94
2023-05-19T18:20:39.383Z,99495.81
2023-05-19T18:23:06.133Z,99496.91
2023-05-19T18:25:32.901Z,99494.69
2023-05-19T18:27:59.597Z,99497.09
2023-05-19T18:30:26.176Z,99492.69
2023-05-19T18:32:52.964Z,99502.16
2023-05-19T18:35:21.098Z,99491.63
2023-05-19T18:37:47.763Z,99497.41
2023-05-19T18:40:14.391Z,99490.69
2023-05-19T18:42:40.982Z,99492.50
2023-05-19T18:45:08.099Z,99491.44
2023-05-19T18:47:35.006Z,99490.97
2023-05-19T18:50:02.049Z,99497.63
2023-05-19T18:52:29.177Z,99496.94
2023-05-19T18:54:56.207Z,99491.16
2023-05-19T18:57:23.148Z,99495.44
2023-05-19T18:59:49.775Z,99494.59
2023-05-19T19:02:16.533Z,99492.69
2023-05-19T19:04:43.609Z,99498.28
2023-05-19T19:07:10.295Z,99494.22
2023-05-19T19:09:37.081Z,99490.91
2023-05-19T19:12:03.943Z,99503.50
2023-05-19T19:14:31.010Z,99505.25
2023-05-19T19:16:57.877Z,99509.63
2023-05-19T19:19:24.881Z,99516.25
2023-05-19T19:21:51.773Z,99514.00
2023-05-19T19:24:18.464Z,99509.72
2023-05-19T19:26:45.080Z,99511.78
2023-05-19T19:29:11.943Z,99518.47
2023-05-19T19:31:38.645Z,99516.41
2023-05-19T19:34:09.220Z,99520.34
2023-05-19T19:36:36.425Z,99525.56
2023-05-19T19:39:03.390Z,99528.34
2023-05-19T19:41:30.233Z,99517.16
2023-05-19T19:43:56.866Z,99519.81
2023-05-19T19:46:23.505Z,99530.94
2023-05-19T19:48:50.160Z,99538.88
2023-05-19T19:51:16.897Z,99530.53
2023-05-19T19:53:43.610Z,99542.59
2023-05-19T19:56:10.219Z,99529.88
2023-05-19T19:58:37.200Z,99533.97
2023-05-19T20:01:04.294Z,99526.25
2023-05-19T20:03:31.713Z,99530.81
2023-05-19T20:05:58.739Z,99532.84
2023-05-19T20:08:26.426Z,99533.97
2023-05-19T20:10:53.680Z,99531.22
2023-05-19T20:13:20.930Z,99536.22
2023-05-19T20:15:47.734Z,99536.03
2023-05-19T20:18:14.482Z,99536.31
2023-05-19T20:20:42.000Z,99538.44
2023-05-19T20:23:09.245Z,99537.28
2023-05-19T20:25:53.638Z,99538.38
2023-05-19T20:28:28.276Z,99543.03
2023-05-19T20:30:54.866Z,99539.22
2023-05-19T20:33:21.448Z,99544.13
2023-05-19T20:35:48.017Z,99548.72
2023-05-19T20:38:14.690Z,99540.63
2023-05-19T20:40:41.549Z,99544.69
2023-05-19T20:43:08.214Z,99546.53
2023-05-19T20:45:35.015Z,99553.69
2023-05-19T20:48:02.778Z,99551.34
2023-05-19T20:50:29.545Z,99543.19
2023-05-19T20:52:56.373Z,99551.13
2023-05-19T20:55:22.913Z,99542.50
2023-05-19T20:57:49.652Z,99545.06
2023-05-19T21:00:16.503Z,99549.84
2023-05-19T21:02:43.391Z,99550.56
2023-05-19T21:05:10.197Z,99550.56
2023-05-19T21:07:36.962Z,99550.56
2023-05-19T21:10:03.757Z,99554.13
2023-05-19T21:12:33.980Z,99546.06
2023-05-19T21:15:01.587Z,99551.75
2023-05-19T21:17:28.428Z,99546.28
2023-05-19T21:19:58.049Z,99545.63
2023-05-19T21:22:26.375Z,99543.00
2023-05-19T21:24:53.830Z,99546.41
2023-05-19T21:27:20.668Z,99541.69
2023-05-19T21:29:47.389Z,99540.66
2023-05-19T21:32:14.074Z,99555.19
2023-05-19T21:34:40.678Z,99548.59
2023-05-19T21:37:07.300Z,99551.81
2023-05-19T21:39:34.818Z,99549.50
2023-05-19T21:42:01.531Z,99553.38
2023-05-19T21:44:28.187Z,99549.47
2023-05-19T21:46:55.014Z,99547.41
2023-05-19T21:49:21.712Z,99543.94
2023-05-19T21:51:48.327Z,99544.13
2023-05-19T21:54:14.958Z,99538.91
2023-05-19T21:56:41.596Z,99540.16
2023-05-19T21:59:09.095Z,99548.06
2023-05-19T22:01:35.656Z,99544.47
2023-05-19T22:04:02.419Z,99548.75
2023-05-19T22:06:29.206Z,99559.41
2023-05-19T22:08:55.860Z,99555.56
2023-05-19T22:11:22.742Z,99553.03
2023-05-19T22:13:50.113Z,99551.63
2023-05-19T22:16:16.739Z,99545.97
2023-05-19T22:18:43.386Z,99544.84
2023-05-19T22:21:10.017Z,99546.84
2023-05-19T22:23:36.645Z,99540.69
2023-05-19T22:26:03.281Z,99540.75
2023-05-19T22:28:29.872Z,99539.56
2023-05-19T22:30:56.514Z,99549.50
2023-05-19T22:33:23.088Z,99545.03
2023-05-19T22:35:49.713Z,99549.81
2023-05-19T22:38:16.385Z,99548.81
2023-05-19T22:40:42.996Z,99543.59
2023-05-19T22:43:09.648Z,99544.91
2023-05-19T22:45:36.602Z,99544.69
2023-05-19T22:48:03.769Z,99547.69
2023-05-19T22:50:30.405Z,99548.38
2023-05-19T22:52:57.440Z,99545.44
2023-05-19T22:55:24.156Z,99537.78
2023-05-19T22:57:51.151Z,99537.13
2023-05-19T23:00:20.708Z,99542.03
2023-05-19T23:02:47.371Z,99541.09
2023-05-19T23:05:14.046Z,99549.28
2023-05-19T23:07:40.815Z,99548.72
2023-05-19T23:10:07.854Z,99545.69
2023-05-19T23:12:34.504Z,99539.88
2023-05-19T23:15:01.183Z,99539.34
2023-05-19T23:17:27.936Z,99538.72
2023-05-19T23:19:54.543Z,99529.75
2023-05-19T23:22:21.094Z,99526.19
2023-05-19T23:24:47.826Z,99538.56
2023-05-19T23:27:14.439Z,99536.75
2023-05-19T23:29:40.982Z,99535.06
2023-05-19T23:32:07.971Z,99529.41
2023-05-19T23:34:34.578Z,99531.81
2023-05-19T23:37:01.149Z,99532.28
2023-05-19T23:39:27.929Z,99528.88
2023-05-19T23:41:54.540Z,99528.38
2023-05-19T23:44:21.183Z,99525.63
2023-05-19T23:46:47.835Z,99523.97
2023-05-19T23:49:14.646Z,99522.44
2023-05-19T23:51:41.351Z,99522.84
2023-05-19T23:54:07.929Z,99514.50
2023-05-19T23:56:34.559Z,99521.28
2023-05-19T23:59:01.296Z,99516.28
